sensor_id;sensor_type;location;lat;lon;timestamp;pressure;altitude;pressure_sealevel;temperature;humidity
74218;BME280;62579;47.288;18.646;2023-09-18T00:01:35;100089.00;;;18.96;87.57
74218;BME280;62579;47.288;18.646;2023-09-18T00:04:00;100094.87;;;19.00;87.11
74218;BME280;62579;47.288;18.646;2023-09-18T00:06:26;100091.56;;;19.01;86.73
74218;BME280;62579;47.288;18.646;2023-09-18T00:08:51;100089.38;;;19.00;86.67
74218;BME280;62579;47.288;18.646;2023-09-18T00:11:17;100085.34;;;19.01;86.29
74218;BME280;62579;47.288;18.646;2023-09-18T00:13:42;100080.00;;;19.03;86.19
74218;BME280;62579;47.288;18.646;2023-09-18T00:16:08;100085.88;;;18.99;85.51
74218;BME280;62579;47.288;18.646;2023-09-18T00:18:33;100079.59;;;18.99;84.95
74218;BME280;62579;47.288;18.646;2023-09-18T00:20:59;100074.66;;;18.97;85.37
74218;BME280;62579;47.288;18.646;2023-09-18T00:23:24;100081.44;;;18.96;85.33
74218;BME280;62579;47.288;18.646;2023-09-18T00:25:49;100083.28;;;18.94;86.17
74218;BME280;62579;47.288;18.646;2023-09-18T00:28:15;100086.03;;;18.86;86.83
74218;BME280;62579;47.288;18.646;2023-09-18T00:30:47;100084.19;;;18.81;86.86
74218;BME280;62579;47.288;18.646;2023-09-18T00:33:14;100084.19;;;18.81;86.42
74218;BME280;62579;47.288;18.646;2023-09-18T00:35:39;100084.91;;;18.74;87.14
74218;BME280;62579;47.288;18.646;2023-09-18T00:38:04;100090.03;;;18.70;87.40
74218;BME280;62579;47.288;18.646;2023-09-18T00:40:32;100077.69;;;18.64;87.60
74218;BME280;62579;47.288;18.646;2023-09-18T00:42:57;100082.25;;;18.61;86.85
74218;BME280;62579;47.288;18.646;2023-09-18T00:45:23;100082.47;;;18.63;86.78
74218;BME280;62579;47.288;18.646;2023-09-18T00:47:49;100074.37;;;18.65;86.09
74218;BME280;62579;47.288;18.646;2023-09-18T00:50:15;100074.72;;;18.62;86.77
74218;BME280;62579;47.288;18.646;2023-09-18T00:52:41;100068.13;;;18.57;87.70
74218;BME280;62579;47.288;18.646;2023-09-18T00:55:07;100078.75;;;18.53;86.84
74218;BME280;62579;47.288;18.646;2023-09-18T00:57:33;100078.38;;;18.49;87.53
74218;BME280;62579;47.288;18.646;2023-09-18T00:59:59;100076.31;;;18.42;87.46
74218;BME280;62579;47.288;18.646;2023-09-18T01:02:25;100068.75;;;18.42;88.11
74218;BME280;62579;47.288;18.646;2023-09-18T01:04:51;100066.88;;;18.30;89.19
74218;BME280;62579;47.288;18.646;2023-09-18T01:07:17;100073.47;;;18.27;88.71
74218;BME280;62579;47.288;18.646;2023-09-18T01:09:43;100061.16;;;18.28;88.20
74218;BME280;62579;47.288;18.646;2023-09-18T01:12:36;100065.03;;;18.32;87.97
74218;BME280;62579;47.288;18.646;2023-09-18T01:15:12;100067.37;;;18.21;88.86
74218;BME280;62579;47.288;18.646;2023-09-18T01:17:40;100062.97;;;18.18;88.83
74218;BME280;62579;47.288;18.646;2023-09-18T01:20:09;100063.84;;;18.13;89.27
74218;BME280;62579;47.288;18.646;2023-09-18T01:22:35;100062.56;;;18.14;89.05
74218;BME280;62579;47.288;18.646;2023-09-18T01:25:01;100066.66;;;18.20;88.50
74218;BME280;62579;47.288;18.646;2023-09-18T01:27:27;100063.16;;;18.20;88.02
74218;BME280;62579;47.288;18.646;2023-09-18T01:29:52;100058.00;;;18.24;87.74
74218;BME280;62579;47.288;18.646;2023-09-18T01:32:18;100068.66;;;18.20;88.42
74218;BME280;62579;47.288;18.646;2023-09-18T01:34:49;100067.28;;;18.06;90.86
74218;BME280;62579;47.288;18.646;2023-09-18T01:37:20;100067.69;;;18.10;90.45
74218;BME280;62579;47.288;18.646;2023-09-18T01:39:48;100070.38;;;18.02;90.23
74218;BME280;62579;47.288;18.646;2023-09-18T01:42:14;100070.78;;;18.06;90.31
74218;BME280;62579;47.288;18.646;2023-09-18T01:44:41;100079.44;;;18.10;90.90
74218;BME280;62579;47.288;18.646;2023-09-18T01:47:09;100073.53;;;18.06;90.28
74218;BME280;62579;47.288;18.646;2023-09-18T01:49:39;100072.06;;;18.05;90.19
74218;BME280;62579;47.288;18.646;2023-09-18T01:52:06;100077.19;;;18.01;90.10
74218;BME280;62579;47.288;18.646;2023-09-18T01:54:32;100081.22;;;18.00;89.97
74218;BME280;62579;47.288;18.646;2023-09-18T01:56:58;100074.59;;;17.95;89.82
74218;BME280;62579;47.288;18.646;2023-09-18T01:59:24;100075.44;;;17.83;89.15
74218;BME280;62579;47.288;18.646;2023-09-18T02:01:50;100079.94;;;17.73;89.74
74218;BME280;62579;47.288;18.646;2023-09-18T02:04:16;100077.13;;;17.65;89.72
74218;BME280;62579;47.288;18.646;2023-09-18T02:06:42;100076.38;;;17.65;90.01
74218;BME280;62579;47.288;18.646;2023-09-18T02:09:08;100071.44;;;17.63;89.76
74218;BME280;62579;47.288;18.646;2023-09-18T02:11:42;100081.31;;;17.59;89.88
74218;BME280;62579;47.288;18.646;2023-09-18T02:14:08;100069.81;;;17.47;90.30
74218;BME280;62579;47.288;18.646;2023-09-18T02:16:36;100071.28;;;17.48;90.92
74218;BME280;62579;47.288;18.646;2023-09-18T02:19:02;100073.44;;;17.42;91.39
74218;BME280;62579;47.288;18.646;2023-09-18T02:21:28;100077.13;;;17.45;91.13
74218;BME280;62579;47.288;18.646;2023-09-18T02:23:54;100075.59;;;17.36;91.14
74218;BME280;62579;47.288;18.646;2023-09-18T02:26:21;100073.78;;;17.38;91.30
74218;BME280;62579;47.288;18.646;2023-09-18T02:28:47;100080.28;;;17.28;92.01
74218;BME280;62579;47.288;18.646;2023-09-18T02:31:13;100073.16;;;17.32;91.51
74218;BME280;62579;47.288;18.646;2023-09-18T02:33:39;100073.91;;;17.33;91.42
74218;BME280;62579;47.288;18.646;2023-09-18T02:36:05;100079.81;;;17.37;91.11
74218;BME280;62579;47.288;18.646;2023-09-18T02:38:31;100070.47;;;17.40;90.99
74218;BME280;62579;47.288;18.646;2023-09-18T02:40:57;100075.78;;;17.38;91.07
74218;BME280;62579;47.288;18.646;2023-09-18T02:43:23;100072.50;;;17.39;90.85
74218;BME280;62579;47.288;18.646;2023-09-18T02:46:08;100073.22;;;17.40;91.16
74218;BME280;62579;47.288;18.646;2023-09-18T02:48:34;100071.75;;;17.39;92.17
74218;BME280;62579;47.288;18.646;2023-09-18T02:51:00;100080.34;;;17.15;95.15
74218;BME280;62579;47.288;18.646;2023-09-18T02:53:25;100078.59;;;17.25;94.80
74218;BME280;62579;47.288;18.646;2023-09-18T02:55:54;100078.28;;;17.28;94.78
74218;BME280;62579;47.288;18.646;2023-09-18T02:58:20;100080.41;;;17.22;95.49
74218;BME280;62579;47.288;18.646;2023-09-18T03:00:47;100080.59;;;17.24;95.36
74218;BME280;62579;47.288;18.646;2023-09-18T03:03:13;100071.28;;;17.27;95.17
74218;BME280;62579;47.288;18.646;2023-09-18T03:05:40;100082.28;;;17.27;94.75
74218;BME280;62579;47.288;18.646;2023-09-18T03:08:06;100084.84;;;17.25;95.35
74218;BME280;62579;47.288;18.646;2023-09-18T03:10:36;100073.44;;;17.21;95.80
74218;BME280;62579;47.288;18.646;2023-09-18T03:13:03;100073.03;;;16.97;97.74
74218;BME280;62579;47.288;18.646;2023-09-18T03:15:29;100075.56;;;16.95;98.00
74218;BME280;62579;47.288;18.646;2023-09-18T03:17:54;100079.91;;;16.90;98.63
74218;BME280;62579;47.288;18.646;2023-09-18T03:20:27;100069.12;;;16.92;98.70
74218;BME280;62579;47.288;18.646;2023-09-18T03:23:00;100069.25;;;16.87;98.80
74218;BME280;62579;47.288;18.646;2023-09-18T03:25:26;100070.59;;;16.93;98.29
74218;BME280;62579;47.288;18.646;2023-09-18T03:27:54;100066.59;;;16.94;97.49
74218;BME280;62579;47.288;18.646;2023-09-18T03:30:20;100063.69;;;17.00;97.35
74218;BME280;62579;47.288;18.646;2023-09-18T03:32:46;100060.47;;;16.88;98.42
74218;BME280;62579;47.288;18.646;2023-09-18T03:35:13;100067.19;;;17.00;97.73
74218;BME280;62579;47.288;18.646;2023-09-18T03:37:46;100057.22;;;17.10;96.55
74218;BME280;62579;47.288;18.646;2023-09-18T03:40:12;100055.31;;;17.05;96.66
74218;BME280;62579;47.288;18.646;2023-09-18T03:42:38;100057.41;;;17.12;95.98
74218;BME280;62579;47.288;18.646;2023-09-18T03:45:05;100057.00;;;17.08;95.52
74218;BME280;62579;47.288;18.646;2023-09-18T03:47:30;100057.34;;;17.05;94.78
74218;BME280;62579;47.288;18.646;2023-09-18T03:49:56;100053.84;;;17.04;94.51
74218;BME280;62579;47.288;18.646;2023-09-18T03:52:21;100048.97;;;17.10;94.19
74218;BME280;62579;47.288;18.646;2023-09-18T03:54:46;100052.78;;;17.07;93.94
74218;BME280;62579;47.288;18.646;2023-09-18T03:57:12;100053.16;;;17.11;93.22
74218;BME280;62579;47.288;18.646;2023-09-18T03:59:38;100050.41;;;17.11;93.23
74218;BME280;62579;47.288;18.646;2023-09-18T04:02:03;100057.59;;;17.14;93.10
74218;BME280;62579;47.288;18.646;2023-09-18T04:04:29;100049.91;;;17.13;93.71
74218;BME280;62579;47.288;18.646;2023-09-18T04:06:54;100053.31;;;17.06;93.66
74218;BME280;62579;47.288;18.646;2023-09-18T04:09:19;100042.50;;;17.08;93.46
74218;BME280;62579;47.288;18.646;2023-09-18T04:11:45;100035.53;;;17.07;93.55
74218;BME280;62579;47.288;18.646;2023-09-18T04:14:10;100032.03;;;17.06;93.96
74218;BME280;62579;47.288;18.646;2023-09-18T04:16:35;100042.50;;;16.87;95.78
74218;BME280;62579;47.288;18.646;2023-09-18T04:19:02;100035.94;;;16.90;95.53
74218;BME280;62579;47.288;18.646;2023-09-18T04:21:28;100030.63;;;16.92;95.96
74218;BME280;62579;47.288;18.646;2023-09-18T04:23:55;100026.41;;;16.91;95.69
74218;BME280;62579;47.288;18.646;2023-09-18T04:26:23;100022.38;;;16.92;95.10
74218;BME280;62579;47.288;18.646;2023-09-18T04:28:49;100028.09;;;16.94;94.71
74218;BME280;62579;47.288;18.646;2023-09-18T04:31:14;100025.75;;;16.98;93.97
74218;BME280;62579;47.288;18.646;2023-09-18T04:33:41;100025.19;;;17.00;93.61
74218;BME280;62579;47.288;18.646;2023-09-18T04:36:06;100024.88;;;17.03;93.68
74218;BME280;62579;47.288;18.646;2023-09-18T04:38:32;100026.34;;;17.04;94.15
74218;BME280;62579;47.288;18.646;2023-09-18T04:41:01;100030.69;;;17.00;94.12
74218;BME280;62579;47.288;18.646;2023-09-18T04:43:26;100027.22;;;16.99;93.67
74218;BME280;62579;47.288;18.646;2023-09-18T04:45:55;100025.19;;;17.00;93.58
74218;BME280;62579;47.288;18.646;2023-09-18T04:48:20;100025.44;;;16.68;97.94
74218;BME280;62579;47.288;18.646;2023-09-18T04:50:45;100029.00;;;16.76;97.95
74218;BME280;62579;47.288;18.646;2023-09-18T04:53:10;100025.59;;;16.83;97.32
74218;BME280;62579;47.288;18.646;2023-09-18T04:55:36;100035.00;;;16.88;97.33
74218;BME280;62579;47.288;18.646;2023-09-18T04:58:03;100029.16;;;16.91;97.33
74218;BME280;62579;47.288;18.646;2023-09-18T05:00:30;100033.63;;;16.81;98.36
74218;BME280;62579;47.288;18.646;2023-09-18T05:02:57;100038.56;;;16.62;100.00
74218;BME280;62579;47.288;18.646;2023-09-18T05:05:25;100034.16;;;16.59;100.00
74218;BME280;62579;47.288;18.646;2023-09-18T05:07:50;100028.13;;;16.47;100.00
74218;BME280;62579;47.288;18.646;2023-09-18T05:10:16;100033.81;;;16.62;100.00
74218;BME280;62579;47.288;18.646;2023-09-18T05:12:41;100029.53;;;16.74;100.00
74218;BME280;62579;47.288;18.646;2023-09-18T05:15:08;100029.50;;;16.88;99.82
74218;BME280;62579;47.288;18.646;2023-09-18T05:17:45;100029.97;;;16.99;98.88
74218;BME280;62579;47.288;18.646;2023-09-18T05:20:17;100037.53;;;17.06;98.22
74218;BME280;62579;47.288;18.646;2023-09-18T05:22:43;100051.03;;;17.17;97.38
74218;BME280;62579;47.288;18.646;2023-09-18T05:25:09;100047.28;;;17.28;96.96
74218;BME280;62579;47.288;18.646;2023-09-18T05:27:36;100052.62;;;17.33;96.75
74218;BME280;62579;47.288;18.646;2023-09-18T05:30:15;100044.72;;;17.09;99.00
74218;BME280;62579;47.288;18.646;2023-09-18T05:32:42;100044.13;;;17.03;99.60
74218;BME280;62579;47.288;18.646;2023-09-18T05:35:09;100045.25;;;17.08;99.44
74218;BME280;62579;47.288;18.646;2023-09-18T05:37:36;100042.50;;;17.08;100.00
74218;BME280;62579;47.288;18.646;2023-09-18T05:40:06;100041.66;;;17.13;99.98
74218;BME280;62579;47.288;18.646;2023-09-18T05:42:35;100039.84;;;17.15;99.90
74218;BME280;62579;47.288;18.646;2023-09-18T05:45:01;100034.59;;;17.25;99.61
74218;BME280;62579;47.288;18.646;2023-09-18T05:47:27;100044.84;;;17.24;99.42
74218;BME280;62579;47.288;18.646;2023-09-18T05:49:52;100037.53;;;17.27;99.48
74218;BME280;62579;47.288;18.646;2023-09-18T05:52:17;100033.53;;;17.28;99.57
74218;BME280;62579;47.288;18.646;2023-09-18T05:54:42;100044.78;;;17.37;99.30
74218;BME280;62579;47.288;18.646;2023-09-18T05:57:08;100039.34;;;17.45;99.16
74218;BME280;62579;47.288;18.646;2023-09-18T05:59:33;100035.16;;;17.52;99.16
74218;BME280;62579;47.288;18.646;2023-09-18T06:01:58;100035.16;;;17.52;99.06
74218;BME280;62579;47.288;18.646;2023-09-18T06:04:24;100038.00;;;17.59;99.19
74218;BME280;62579;47.288;18.646;2023-09-18T06:06:49;100025.81;;;17.75;98.09
74218;BME280;62579;47.288;18.646;2023-09-18T06:09:16;100031.94;;;17.89;97.87
74218;BME280;62579;47.288;18.646;2023-09-18T06:11:41;100037.31;;;17.94;96.98
74218;BME280;62579;47.288;18.646;2023-09-18T06:14:07;100029.97;;;17.97;96.76
74218;BME280;62579;47.288;18.646;2023-09-18T06:16:32;100021.56;;;18.02;96.36
74218;BME280;62579;47.288;18.646;2023-09-18T06:18:57;100012.25;;;18.21;95.96
74218;BME280;62579;47.288;18.646;2023-09-18T06:21:25;100011.34;;;18.18;95.38
74218;BME280;62579;47.288;18.646;2023-09-18T06:23:50;100009.16;;;18.24;94.58
74218;BME280;62579;47.288;18.646;2023-09-18T06:26:16;100013.78;;;18.29;94.72
74218;BME280;62579;47.288;18.646;2023-09-18T06:28:42;100011.28;;;18.46;93.90
74218;BME280;62579;47.288;18.646;2023-09-18T06:31:09;100016.59;;;18.44;93.34
74218;BME280;62579;47.288;18.646;2023-09-18T06:33:36;100019.53;;;18.46;92.53
74218;BME280;62579;47.288;18.646;2023-09-18T06:36:01;100013.00;;;18.65;92.66
74218;BME280;62579;47.288;18.646;2023-09-18T06:38:28;100011.91;;;18.75;92.14
74218;BME280;62579;47.288;18.646;2023-09-18T06:40:53;100009.72;;;18.89;92.03
74218;BME280;62579;47.288;18.646;2023-09-18T06:43:20;100002.03;;;18.87;91.33
74218;BME280;62579;47.288;18.646;2023-09-18T06:45:45;100002.59;;;19.01;91.19
74218;BME280;62579;47.288;18.646;2023-09-18T06:48:10;100001.66;;;19.13;89.52
74218;BME280;62579;47.288;18.646;2023-09-18T06:50:36;99998.72;;;19.27;89.37
74218;BME280;62579;47.288;18.646;2023-09-18T06:53:01;100004.59;;;19.23;88.71
74218;BME280;62579;47.288;18.646;2023-09-18T06:55:27;100008.84;;;19.24;89.44
74218;BME280;62579;47.288;18.646;2023-09-18T06:57:52;100010.88;;;19.46;88.43
74218;BME280;62579;47.288;18.646;2023-09-18T07:00:18;100006.81;;;19.62;88.14
74218;BME280;62579;47.288;18.646;2023-09-18T07:02:46;100001.84;;;19.53;87.50
74218;BME280;62579;47.288;18.646;2023-09-18T07:05:11;100007.34;;;19.61;86.97
74218;BME280;62579;47.288;18.646;2023-09-18T07:07:36;100006.97;;;19.72;86.46
74218;BME280;62579;47.288;18.646;2023-09-18T07:10:02;100004.75;;;19.78;85.54
74218;BME280;62579;47.288;18.646;2023-09-18T07:12:27;99997.53;;;19.83;85.79
74218;BME280;62579;47.288;18.646;2023-09-18T07:14:53;99999.00;;;19.91;85.38
74218;BME280;62579;47.288;18.646;2023-09-18T07:17:18;99998.63;;;19.95;85.03
74218;BME280;62579;47.288;18.646;2023-09-18T07:19:44;99993.03;;;20.10;84.77
74218;BME280;62579;47.288;18.646;2023-09-18T07:22:09;100000.37;;;20.15;84.22
74218;BME280;62579;47.288;18.646;2023-09-18T07:24:34;99990.97;;;20.25;84.52
74218;BME280;62579;47.288;18.646;2023-09-18T07:27:00;100001.31;;;20.25;83.50
74218;BME280;62579;47.288;18.646;2023-09-18T07:29:25;99995.69;;;20.40;83.99
74218;BME280;62579;47.288;18.646;2023-09-18T07:31:51;99991.16;;;20.27;83.96
74218;BME280;62579;47.288;18.646;2023-09-18T07:34:17;99992.87;;;20.48;82.62
74218;BME280;62579;47.288;18.646;2023-09-18T07:36:43;99986.41;;;20.53;82.02
74218;BME280;62579;47.288;18.646;2023-09-18T07:39:09;99990.97;;;20.65;82.21
74218;BME280;62579;47.288;18.646;2023-09-18T07:41:37;99980.34;;;20.54;82.70
74218;BME280;62579;47.288;18.646;2023-09-18T07:44:02;99982.19;;;20.76;82.11
74218;BME280;62579;47.288;18.646;2023-09-18T07:46:27;99983.16;;;20.71;81.46
74218;BME280;62579;47.288;18.646;2023-09-18T07:48:53;99981.38;;;20.91;81.92
74218;BME280;62579;47.288;18.646;2023-09-18T07:51:19;99980.47;;;20.88;80.84
74218;BME280;62579;47.288;18.646;2023-09-18T07:53:44;99980.47;;;20.88;81.98
74218;BME280;62579;47.288;18.646;2023-09-18T07:56:09;99976.13;;;21.03;81.59
74218;BME280;62579;47.288;18.646;2023-09-18T07:58:35;99966.66;;;21.13;80.84
74218;BME280;62579;47.288;18.646;2023-09-18T08:01:04;99969.78;;;21.34;80.56
74218;BME280;62579;47.288;18.646;2023-09-18T08:03:30;99974.50;;;21.24;79.79
74218;BME280;62579;47.288;18.646;2023-09-18T08:05:55;99965.59;;;21.26;79.65
74218;BME280;62579;47.288;18.646;2023-09-18T08:08:21;99957.47;;;21.28;79.54
74218;BME280;62579;47.288;18.646;2023-09-18T08:10:49;99955.13;;;21.41;79.44
74218;BME280;62579;47.288;18.646;2023-09-18T08:13:15;99954.78;;;21.54;78.87
74218;BME280;62579;47.288;18.646;2023-09-18T08:15:40;99953.00;;;21.49;78.50
74218;BME280;62579;47.288;18.646;2023-09-18T08:18:06;99960.25;;;21.79;78.53
74218;BME280;62579;47.288;18.646;2023-09-18T08:20:31;99951.06;;;21.94;77.16
74218;BME280;62579;47.288;18.646;2023-09-18T08:22:58;99957.63;;;21.81;76.97
74218;BME280;62579;47.288;18.646;2023-09-18T08:25:26;99958.72;;;21.86;77.78
74218;BME280;62579;47.288;18.646;2023-09-18T08:27:52;99943.22;;;22.00;77.08
74218;BME280;62579;47.288;18.646;2023-09-18T08:30:18;99948.47;;;22.23;76.28
74218;BME280;62579;47.288;18.646;2023-09-18T08:35:11;99950.88;;;22.62;75.54
74218;BME280;62579;47.288;18.646;2023-09-18T08:37:36;99955.03;;;22.44;74.51
74218;BME280;62579;47.288;18.646;2023-09-18T08:40:02;99957.53;;;22.77;74.43
74218;BME280;62579;47.288;18.646;2023-09-18T08:42:35;99954.81;;;22.96;74.47
74218;BME280;62579;47.288;18.646;2023-09-18T08:45:01;99960.84;;;23.11;74.00
74218;BME280;62579;47.288;18.646;2023-09-18T08:47:29;99961.59;;;23.21;73.38
74218;BME280;62579;47.288;18.646;2023-09-18T08:49:55;99970.09;;;23.33;72.01
74218;BME280;62579;47.288;18.646;2023-09-18T08:52:22;99964.69;;;23.35;71.76
74218;BME280;62579;47.288;18.646;2023-09-18T08:54:49;99955.06;;;23.36;71.92
74218;BME280;62579;47.288;18.646;2023-09-18T08:57:16;99953.59;;;23.35;71.51
74218;BME280;62579;47.288;18.646;2023-09-18T08:59:41;99941.66;;;23.52;71.49
74218;BME280;62579;47.288;18.646;2023-09-18T09:02:07;99939.59;;;23.52;70.87
74218;BME280;62579;47.288;18.646;2023-09-18T09:04:37;99944.12;;;23.57;70.54
74218;BME280;62579;47.288;18.646;2023-09-18T09:07:03;99943.84;;;23.72;70.75
74218;BME280;62579;47.288;18.646;2023-09-18T09:09:28;99950.88;;;23.73;69.51
74218;BME280;62579;47.288;18.646;2023-09-18T09:11:56;99944.53;;;24.02;70.38
74218;BME280;62579;47.288;18.646;2023-09-18T09:14:21;99938.41;;;24.03;68.85
74218;BME280;62579;47.288;18.646;2023-09-18T09:16:56;99944.22;;;24.07;68.65
74218;BME280;62579;47.288;18.646;2023-09-18T09:19:32;99939.44;;;24.17;68.17
74218;BME280;62579;47.288;18.646;2023-09-18T09:22:00;99940.41;;;24.31;67.76
74218;BME280;62579;47.288;18.646;2023-09-18T09:24:55;99936.25;;;24.52;67.96
74218;BME280;62579;47.288;18.646;2023-09-18T09:27:21;99930.88;;;24.44;66.87
74218;BME280;62579;47.288;18.646;2023-09-18T09:29:59;99924.81;;;24.47;67.20
74218;BME280;62579;47.288;18.646;2023-09-18T09:32:29;99924.19;;;24.59;66.40
74218;BME280;62579;47.288;18.646;2023-09-18T09:34:57;99918.72;;;24.70;65.93
74218;BME280;62579;47.288;18.646;2023-09-18T09:37:31;99907.31;;;24.66;66.21
74218;BME280;62579;47.288;18.646;2023-09-18T09:39:57;99909.94;;;24.74;65.90
74218;BME280;62579;47.288;18.646;2023-09-18T09:42:24;99908.72;;;24.86;65.57
74218;BME280;62579;47.288;18.646;2023-09-18T09:45:02;99905.81;;;25.05;65.18
74218;BME280;62579;47.288;18.646;2023-09-18T09:47:33;99897.88;;;25.12;63.80
74218;BME280;62579;47.288;18.646;2023-09-18T09:49:59;99904.34;;;25.26;64.62
74218;BME280;62579;47.288;18.646;2023-09-18T09:52:33;99908.28;;;25.32;63.30
74218;BME280;62579;47.288;18.646;2023-09-18T09:54:58;99896.19;;;25.18;63.23
74218;BME280;62579;47.288;18.646;2023-09-18T09:57:24;99890.25;;;25.33;63.65
74218;BME280;62579;47.288;18.646;2023-09-18T09:59:49;99889.63;;;25.35;63.24
74218;BME280;62579;47.288;18.646;2023-09-18T10:02:15;99877.38;;;25.49;62.96
74218;BME280;62579;47.288;18.646;2023-09-18T10:04:45;99871.37;;;25.64;62.36
74218;BME280;62579;47.288;18.646;2023-09-18T10:07:15;99871.25;;;25.62;61.55
74218;BME280;62579;47.288;18.646;2023-09-18T10:09:43;99875.25;;;25.71;62.68
74218;BME280;62579;47.288;18.646;2023-09-18T10:12:15;99868.44;;;25.62;61.91
74218;BME280;62579;47.288;18.646;2023-09-18T10:14:46;99864.59;;;25.67;61.65
74218;BME280;62579;47.288;18.646;2023-09-18T10:17:18;99864.53;;;25.56;61.70
74218;BME280;62579;47.288;18.646;2023-09-18T10:22:30;99850.72;;;25.46;61.75
74218;BME280;62579;47.288;18.646;2023-09-18T10:25:10;99848.34;;;25.64;61.69
74218;BME280;62579;47.288;18.646;2023-09-18T10:27:38;99852.75;;;25.79;61.67
74218;BME280;62579;47.288;18.646;2023-09-18T10:30:06;99869.97;;;25.98;60.87
74218;BME280;62579;47.288;18.646;2023-09-18T10:32:38;99854.72;;;25.99;60.79
74218;BME280;62579;47.288;18.646;2023-09-18T10:35:06;99846.03;;;26.28;59.93
74218;BME280;62579;47.288;18.646;2023-09-18T10:37:33;99847.44;;;25.94;59.56
74218;BME280;62579;47.288;18.646;2023-09-18T10:40:00;99838.88;;;26.25;59.95
74218;BME280;62579;47.288;18.646;2023-09-18T10:42:26;99841.91;;;26.17;60.07
74218;BME280;62579;47.288;18.646;2023-09-18T10:44:52;99836.56;;;26.45;59.87
74218;BME280;62579;47.288;18.646;2023-09-18T10:47:18;99835.59;;;26.29;58.88
74218;BME280;62579;47.288;18.646;2023-09-18T10:49:45;99829.41;;;26.53;58.57
74218;BME280;62579;47.288;18.646;2023-09-18T10:52:11;99829.88;;;26.50;58.20
74218;BME280;62579;47.288;18.646;2023-09-18T10:54:38;99819.44;;;26.62;58.73
74218;BME280;62579;47.288;18.646;2023-09-18T10:57:04;99818.09;;;26.63;57.68
74218;BME280;62579;47.288;18.646;2023-09-18T10:59:30;99816.41;;;26.58;58.00
74218;BME280;62579;47.288;18.646;2023-09-18T11:02:02;99813.50;;;26.67;57.65
74218;BME280;62579;47.288;18.646;2023-09-18T11:04:31;99801.94;;;26.73;57.36
74218;BME280;62579;47.288;18.646;2023-09-18T11:09:30;99802.53;;;26.95;57.06
74218;BME280;62579;47.288;18.646;2023-09-18T11:14:23;99796.00;;;26.78;57.17
74218;BME280;62579;47.288;18.646;2023-09-18T11:16:49;99798.03;;;26.90;57.25
74218;BME280;62579;47.288;18.646;2023-09-18T11:19:19;99794.59;;;27.03;57.24
74218;BME280;62579;47.288;18.646;2023-09-18T11:21:47;99795.81;;;27.00;57.45
74218;BME280;62579;47.288;18.646;2023-09-18T11:26:44;99776.09;;;26.72;56.64
74218;BME280;62579;47.288;18.646;2023-09-18T11:29:13;99783.91;;;26.51;57.10
74218;BME280;62579;47.288;18.646;2023-09-18T11:31:49;99769.56;;;26.56;57.62
74218;BME280;62579;47.288;18.646;2023-09-18T11:34:29;99770.69;;;27.00;57.23
74218;BME280;62579;47.288;18.646;2023-09-18T11:37:22;99770.53;;;27.34;56.56
74218;BME280;62579;47.288;18.646;2023-09-18T11:39:50;99762.34;;;27.38;54.92
74218;BME280;62579;47.288;18.646;2023-09-18T11:42:20;99754.03;;;27.52;55.33
74218;BME280;62579;47.288;18.646;2023-09-18T11:44:48;99758.59;;;27.46;54.15
74218;BME280;62579;47.288;18.646;2023-09-18T11:47:15;99752.28;;;27.59;53.77
74218;BME280;62579;47.288;18.646;2023-09-18T11:49:58;99745.31;;;27.46;53.11
74218;BME280;62579;47.288;18.646;2023-09-18T11:52:25;99736.34;;;27.61;53.00
74218;BME280;62579;47.288;18.646;2023-09-18T11:54:52;99738.88;;;27.82;52.81
74218;BME280;62579;47.288;18.646;2023-09-18T11:57:18;99732.22;;;27.89;53.25
74218;BME280;62579;47.288;18.646;2023-09-18T11:59:47;99737.81;;;27.76;52.12
74218;BME280;62579;47.288;18.646;2023-09-18T12:02:13;99733.97;;;27.56;52.04
74218;BME280;62579;47.288;18.646;2023-09-18T12:04:46;99730.00;;;27.47;52.73
74218;BME280;62579;47.288;18.646;2023-09-18T12:07:13;99726.81;;;27.53;52.92
74218;BME280;62579;47.288;18.646;2023-09-18T12:09:39;99718.31;;;27.51;52.59
74218;BME280;62579;47.288;18.646;2023-09-18T12:12:07;99716.44;;;27.55;52.73
74218;BME280;62579;47.288;18.646;2023-09-18T12:14:34;99698.75;;;27.51;52.21
74218;BME280;62579;47.288;18.646;2023-09-18T12:17:03;99707.88;;;27.51;53.08
74218;BME280;62579;47.288;18.646;2023-09-18T12:19:29;99698.06;;;27.38;52.54
74218;BME280;62579;47.288;18.646;2023-09-18T12:21:55;99703.22;;;27.30;53.01
74218;BME280;62579;47.288;18.646;2023-09-18T12:26:48;99695.81;;;27.49;53.08
74218;BME280;62579;47.288;18.646;2023-09-18T12:29:14;99691.38;;;27.57;52.37
74218;BME280;62579;47.288;18.646;2023-09-18T12:31:40;99687.56;;;27.51;52.74
74218;BME280;62579;47.288;18.646;2023-09-18T12:34:16;99685.69;;;27.41;53.20
74218;BME280;62579;47.288;18.646;2023-09-18T12:36:43;99688.50;;;27.55;52.91
74218;BME280;62579;47.288;18.646;2023-09-18T12:39:08;99682.50;;;27.74;52.42
74218;BME280;62579;47.288;18.646;2023-09-18T12:41:35;99687.47;;;27.76;51.79
74218;BME280;62579;47.288;18.646;2023-09-18T12:44:01;99678.06;;;27.83;51.28
74218;BME280;62579;47.288;18.646;2023-09-18T12:46:29;99675.78;;;27.93;50.23
74218;BME280;62579;47.288;18.646;2023-09-18T12:48:55;99687.50;;;28.17;50.80
74218;BME280;62579;47.288;18.646;2023-09-18T12:51:29;99690.06;;;28.40;49.98
74218;BME280;62579;47.288;18.646;2023-09-18T12:54:02;99682.22;;;28.66;49.75
74218;BME280;62579;47.288;18.646;2023-09-18T12:56:31;99683.69;;;28.67;48.60
74218;BME280;62579;47.288;18.646;2023-09-18T12:58:58;99685.72;;;28.80;48.60